createdAt,value
2023-05-11T00:02:17.928Z,15.57
2023-05-11T00:04:45.221Z,14.73
2023-05-11T00:07:12.636Z,19.30
2023-05-11T00:09:41.584Z,18.48
2023-05-11T00:12:08.900Z,18.05
2023-05-11T00:14:36.014Z,17.65
2023-05-11T00:17:03.228Z,18.83
2023-05-11T00:19:31.577Z,18.10
2023-05-11T00:21:59.247Z,16.45
2023-05-11T00:24:26.594Z,18.30
2023-05-11T00:26:53.727Z,16.70
2023-05-11T00:29:21.302Z,16.80
2023-05-11T00:31:48.553Z,21.50
2023-05-11T00:34:16.662Z,16.90
2023-05-11T00:36:44.365Z,18.35
2023-05-11T00:39:12.597Z,15.10
2023-05-11T00:41:39.854Z,13.05
2023-05-11T00:44:07.312Z,16.27
2023-05-11T00:46:34.662Z,16.33
2023-05-11T00:49:02.426Z,17.80
2023-05-11T00:51:31.974Z,14.85
2023-05-11T00:53:59.933Z,15.55
2023-05-11T00:56:27.158Z,17.85
2023-05-11T00:58:54.776Z,15.52
2023-05-11T01:01:22.521Z,15.30
2023-05-11T01:03:49.881Z,14.20
2023-05-11T01:06:31.817Z,18.48
2023-05-11T01:09:20.698Z,20.90
2023-05-11T01:11:59.027Z,15.80
2023-05-11T01:14:32.873Z,17.00
2023-05-11T01:17:05.855Z,14.15
2023-05-11T01:19:48.244Z,15.27
2023-05-11T01:22:54.611Z,17.85
2023-05-11T01:25:39.844Z,18.05
2023-05-11T01:28:44.177Z,21.13
2023-05-11T01:31:12.957Z,15.88
2023-05-11T01:33:48.136Z,22.88
2023-05-11T01:36:16.158Z,18.65
2023-05-11T01:38:46.212Z,18.38
2023-05-11T01:41:18.897Z,18.67
2023-05-11T01:43:49.516Z,21.83
2023-05-11T01:46:17.622Z,20.63
2023-05-11T01:48:47.388Z,22.90
2023-05-11T01:51:16.366Z,20.90
2023-05-11T01:53:44.663Z,19.35
2023-05-11T01:56:12.463Z,21.55
2023-05-11T01:58:40.846Z,20.23
2023-05-11T02:01:11.250Z,20.55
2023-05-11T02:03:39.066Z,19.48
2023-05-11T02:06:07.031Z,19.10
2023-05-11T02:08:34.754Z,19.38
2023-05-11T02:11:03.020Z,20.10
2023-05-11T02:13:30.901Z,15.27
2023-05-11T02:16:24.072Z,18.10
2023-05-11T02:18:53.829Z,17.88
2023-05-11T02:21:21.787Z,18.30
2023-05-11T02:23:51.312Z,19.95
2023-05-11T02:26:18.578Z,20.42
2023-05-11T02:28:45.990Z,16.20
2023-05-11T02:31:18.058Z,18.85
2023-05-11T02:33:51.597Z,15.98
2023-05-11T02:36:22.510Z,20.73
2023-05-11T02:38:55.078Z,15.98
2023-05-11T02:41:26.913Z,15.85
2023-05-11T02:43:54.509Z,14.63
2023-05-11T02:46:25.310Z,15.43
2023-05-11T02:48:56.707Z,18.25
2023-05-11T02:51:28.805Z,13.57
2023-05-11T02:53:57.484Z,14.63
2023-05-11T02:56:25.587Z,12.32
2023-05-11T02:58:52.781Z,14.10
2023-05-11T03:01:21.526Z,11.52
2023-05-11T03:03:49.125Z,12.85
2023-05-11T03:06:16.367Z,13.73
2023-05-11T03:08:43.787Z,14.48
2023-05-11T03:11:12.641Z,13.23
2023-05-11T03:13:40.165Z,12.07
2023-05-11T03:16:07.916Z,12.45
2023-05-11T03:18:36.344Z,10.85
2023-05-11T03:21:04.574Z,11.88
2023-05-11T03:23:32.507Z,11.10
2023-05-11T03:26:00.189Z,16.27
2023-05-11T03:28:28.148Z,16.75
2023-05-11T03:30:55.380Z,11.98
2023-05-11T03:33:22.922Z,11.10
2023-05-11T03:35:51.507Z,12.00
2023-05-11T03:38:22.808Z,12.35
2023-05-11T03:40:52.081Z,12.82
2023-05-11T03:43:20.327Z,11.40
2023-05-11T03:45:48.539Z,11.88
2023-05-11T03:48:18.995Z,12.45
2023-05-11T03:50:47.368Z,10.65
2023-05-11T03:53:15.933Z,13.77
2023-05-11T03:55:43.336Z,10.93
2023-05-11T03:58:11.127Z,14.40
2023-05-11T04:00:40.057Z,12.85
2023-05-11T04:03:09.083Z,10.30
2023-05-11T04:05:36.379Z,12.82
2023-05-11T04:08:05.006Z,11.98
2023-05-11T04:10:32.303Z,11.75
2023-05-11T04:12:59.538Z,11.70
2023-05-11T04:15:26.764Z,10.90
2023-05-11T04:17:54.027Z,14.30
2023-05-11T04:20:21.482Z,11.38
2023-05-11T04:22:48.713Z,15.13
2023-05-11T04:25:16.625Z,11.18
2023-05-11T04:27:43.833Z,10.88
2023-05-11T04:30:11.348Z,8.60
2023-05-11T04:32:38.719Z,10.10
2023-05-11T04:35:06.414Z,15.20
2023-05-11T04:37:33.638Z,10.82
2023-05-11T04:40:00.901Z,9.77
2023-05-11T04:42:30.150Z,11.15
2023-05-11T04:44:57.368Z,10.77
2023-05-11T04:47:24.762Z,10.82
2023-05-11T04:49:52.117Z,10.32
2023-05-11T04:52:19.319Z,10.50
2023-05-11T04:54:46.656Z,9.82
2023-05-11T04:57:13.854Z,10.65
2023-05-11T04:59:41.148Z,11.38
2023-05-11T05:02:26.365Z,9.55
2023-05-11T05:04:53.594Z,12.20
2023-05-11T05:07:20.870Z,7.53
2023-05-11T05:09:48.207Z,7.63
2023-05-11T05:12:15.551Z,10.57
2023-05-11T05:14:42.728Z,11.20
2023-05-11T05:17:10.065Z,13.02
2023-05-11T05:19:37.438Z,9.90
2023-05-11T05:22:05.353Z,8.93
2023-05-11T05:24:32.660Z,9.68
2023-05-11T05:26:59.827Z,9.15
2023-05-11T05:29:27.060Z,7.80
2023-05-11T05:31:56.713Z,9.90
2023-05-11T05:34:23.889Z,8.13
2023-05-11T05:36:51.178Z,12.35
2023-05-11T05:39:18.530Z,8.00
2023-05-11T05:41:45.821Z,8.23
2023-05-11T05:44:13.048Z,8.55
2023-05-11T05:46:40.353Z,8.27
2023-05-11T05:49:07.693Z,13.82
2023-05-11T05:51:34.913Z,9.55
2023-05-11T05:54:02.126Z,7.95
2023-05-11T05:56:29.308Z,11.80
2023-05-11T05:58:56.601Z,8.43
2023-05-11T06:01:24.225Z,6.32
2023-05-11T06:03:52.072Z,8.45
2023-05-11T06:06:19.571Z,7.75
2023-05-11T06:08:46.909Z,8.82
2023-05-11T06:11:14.181Z,10.45
2023-05-11T06:13:41.420Z,7.43
2023-05-11T06:16:08.726Z,6.78
2023-05-11T06:18:36.184Z,10.98
2023-05-11T06:21:03.572Z,8.70
2023-05-11T06:23:30.692Z,12.38
2023-05-11T06:25:57.848Z,8.10
2023-05-11T06:28:25.030Z,7.75
2023-05-11T06:30:52.343Z,7.88
2023-05-11T06:33:19.550Z,11.23
2023-05-11T06:35:46.732Z,13.80
2023-05-11T06:38:13.932Z,6.90
2023-05-11T06:40:41.279Z,9.25
2023-05-11T06:43:08.681Z,7.78
2023-05-11T06:45:35.927Z,6.93
2023-05-11T06:48:03.940Z,6.78
2023-05-11T06:50:31.366Z,9.65
2023-05-11T06:52:58.686Z,12.73
2023-05-11T06:55:27.699Z,5.53
2023-05-11T06:57:55.040Z,5.85
2023-05-11T07:00:22.355Z,8.45
2023-05-11T07:02:49.902Z,6.45
2023-05-11T07:05:17.334Z,5.82
2023-05-11T07:07:44.568Z,8.48
2023-05-11T07:10:12.070Z,14.80
2023-05-11T07:12:39.261Z,6.47
2023-05-11T07:15:07.220Z,9.98
2023-05-11T07:17:34.498Z,5.85
2023-05-11T07:20:01.772Z,7.63
2023-05-11T07:22:28.995Z,8.77
2023-05-11T07:24:56.237Z,8.20
2023-05-11T07:27:23.436Z,7.22
2023-05-11T07:29:50.770Z,4.15
2023-05-11T07:32:17.982Z,4.95
2023-05-11T07:34:45.808Z,3.55
2023-05-11T07:37:13.180Z,5.95
2023-05-11T07:39:40.889Z,5.85
2023-05-11T07:42:08.372Z,15.15
2023-05-11T07:44:37.436Z,12.60
2023-05-11T07:47:04.843Z,5.03
2023-05-11T07:49:42.966Z,8.45
2023-05-11T07:52:11.672Z,8.65
2023-05-11T07:54:40.361Z,4.47
2023-05-11T07:57:07.893Z,3.05
2023-05-11T07:59:35.142Z,5.10
2023-05-11T08:02:02.671Z,8.07
2023-05-11T08:04:30.433Z,5.63
2023-05-11T08:06:58.383Z,4.22
2023-05-11T08:09:25.707Z,4.75
2023-05-11T08:11:54.017Z,4.60
2023-05-11T08:14:21.270Z,3.88
2023-05-11T08:16:49.811Z,6.25
2023-05-11T08:19:17.191Z,4.97
2023-05-11T08:21:46.343Z,5.07
2023-05-11T08:24:13.649Z,2.92
2023-05-11T08:26:41.085Z,9.27
2023-05-11T08:29:08.385Z,4.43
2023-05-11T08:31:35.668Z,3.50
2023-05-11T08:34:03.109Z,8.82
2023-05-11T08:36:30.465Z,3.95
2023-05-11T08:38:59.379Z,4.70
2023-05-11T08:41:26.798Z,3.05
2023-05-11T08:43:54.701Z,7.05
2023-05-11T08:46:24.322Z,9.45
2023-05-11T08:48:51.650Z,2.95
2023-05-11T08:51:18.984Z,2.83
2023-05-11T08:53:46.305Z,4.57
2023-05-11T08:56:13.690Z,2.40
2023-05-11T08:58:42.956Z,4.53
2023-05-11T09:01:12.475Z,2.53
2023-05-11T09:03:40.640Z,6.05
2023-05-11T09:06:08.943Z,5.50
2023-05-11T09:08:37.943Z,3.03
2023-05-11T09:11:06.226Z,7.43
2023-05-11T09:13:33.986Z,3.17
2023-05-11T09:16:01.388Z,3.72
2023-05-11T09:18:28.802Z,3.00
2023-05-11T09:20:56.138Z,5.72
2023-05-11T09:23:27.040Z,6.57
2023-05-11T09:25:54.996Z,2.30
2023-05-11T09:28:25.404Z,5.68
2023-05-11T09:30:53.853Z,7.93
2023-05-11T09:33:23.857Z,3.85
2023-05-11T09:35:51.807Z,3.95
2023-05-11T09:38:23.157Z,3.53
2023-05-11T09:40:54.940Z,2.75
2023-05-11T09:43:26.400Z,2.95
2023-05-11T09:45:56.185Z,4.80
2023-05-11T09:48:29.092Z,3.33
2023-05-11T09:51:06.652Z,5.10
2023-05-11T09:53:42.886Z,2.85
2023-05-11T09:56:11.295Z,4.57
2023-05-11T09:58:57.329Z,3.40
2023-05-11T10:01:34.843Z,4.03
2023-05-11T10:04:21.523Z,5.40
2023-05-11T10:06:55.740Z,3.85
2023-05-11T10:09:25.546Z,4.53
2023-05-11T10:11:53.742Z,6.72
2023-05-11T10:14:21.923Z,3.80
2023-05-11T10:16:50.025Z,5.95
2023-05-11T10:19:17.878Z,5.75
2023-05-11T10:21:46.894Z,5.05
2023-05-11T10:24:14.502Z,4.38
2023-05-11T10:26:42.464Z,2.53
2023-05-11T10:29:10.858Z,5.63
2023-05-11T10:31:38.683Z,4.15
2023-05-11T10:34:06.238Z,4.85
2023-05-11T10:36:34.193Z,5.00
2023-05-11T10:39:01.436Z,7.15
2023-05-11T10:42:01.590Z,4.88
2023-05-11T10:44:28.719Z,3.90
2023-05-11T10:47:22.056Z,4.00
2023-05-11T10:49:58.353Z,7.13
2023-05-11T10:52:57.822Z,3.65
2023-05-11T10:55:49.969Z,7.60
2023-05-11T10:58:44.742Z,3.25
2023-05-11T11:01:22.719Z,2.30
2023-05-11T11:04:02.809Z,5.93
2023-05-11T11:06:31.521Z,3.22
2023-05-11T11:09:02.159Z,4.78
2023-05-11T11:11:46.476Z,2.33
2023-05-11T11:14:15.765Z,5.35
2023-05-11T11:17:18.278Z,3.10
2023-05-11T11:19:46.032Z,6.40
2023-05-11T11:22:35.106Z,5.30
2023-05-11T11:25:05.239Z,8.05
2023-05-11T11:27:41.865Z,2.72
2023-05-11T11:30:23.041Z,4.55
2023-05-11T11:32:53.113Z,2.50
2023-05-11T11:35:39.179Z,4.03
2023-05-11T11:38:06.995Z,6.68
2023-05-11T11:40:50.647Z,4.10
2023-05-11T11:43:20.366Z,9.13
2023-05-11T11:45:53.733Z,3.67
2023-05-11T11:48:31.380Z,2.35
2023-05-11T11:51:04.297Z,6.85
2023-05-11T11:53:37.771Z,5.50
2023-05-11T11:56:26.456Z,5.32
2023-05-11T11:58:56.931Z,5.75
2023-05-11T12:01:27.622Z,14.68
2023-05-11T12:04:40.790Z,11.25
2023-05-11T12:07:10.031Z,7.60
2023-05-11T12:09:38.454Z,8.70
2023-05-11T12:12:06.604Z,6.88
2023-05-11T12:14:34.794Z,7.63
2023-05-11T12:17:05.437Z,3.92
2023-05-11T12:19:32.680Z,2.72
2023-05-11T12:22:00.260Z,2.85
2023-05-11T12:24:27.631Z,4.90
2023-05-11T12:27:19.923Z,8.18
2023-05-11T12:29:51.053Z,8.85
2023-05-11T12:32:28.929Z,6.38
2023-05-11T12:35:01.322Z,5.50
2023-05-11T12:37:31.991Z,4.47
2023-05-11T12:39:59.556Z,5.32
2023-05-11T12:42:26.735Z,7.10
2023-05-11T12:44:54.097Z,3.22
2023-05-11T12:47:21.375Z,7.10
2023-05-11T12:49:48.634Z,3.20
2023-05-11T12:52:15.949Z,7.88
2023-05-11T12:54:50.308Z,5.63
2023-05-11T12:57:28.685Z,4.50
2023-05-11T13:00:19.444Z,4.10
2023-05-11T13:02:54.988Z,4.50
2023-05-11T13:05:26.747Z,3.38
2023-05-11T13:08:02.068Z,2.42
2023-05-11T13:10:29.412Z,11.95
2023-05-11T13:12:57.171Z,3.33
2023-05-11T13:15:25.489Z,3.97
2023-05-11T13:17:58.533Z,3.53
2023-05-11T13:20:29.589Z,2.17
2023-05-11T13:23:10.572Z,2.60
2023-05-11T13:25:48.608Z,2.15
2023-05-11T13:28:16.717Z,3.33
2023-05-11T13:30:44.798Z,4.82
2023-05-11T13:33:12.353Z,2.15
2023-05-11T13:35:41.786Z,1.83
2023-05-11T13:38:09.796Z,4.30
2023-05-11T13:40:37.672Z,5.50
2023-05-11T13:43:05.096Z,2.15
2023-05-11T13:45:32.391Z,2.65
2023-05-11T13:47:59.738Z,5.35
2023-05-11T13:50:27.245Z,3.55
2023-05-11T13:52:54.656Z,6.97
2023-05-11T13:55:22.215Z,2.53
2023-05-11T13:57:49.584Z,4.03
2023-05-11T14:00:17.312Z,3.55
2023-05-11T14:02:44.923Z,3.60
2023-05-11T14:05:13.802Z,5.22
2023-05-11T14:07:47.155Z,1.55
2023-05-11T14:10:16.915Z,6.10
2023-05-11T14:12:44.178Z,3.20
2023-05-11T14:15:11.885Z,3.03
2023-05-11T14:17:41.806Z,4.25
2023-05-11T14:20:10.130Z,3.38
2023-05-11T14:22:37.554Z,13.35
2023-05-11T14:25:05.504Z,2.72
2023-05-11T14:27:32.855Z,3.95
2023-05-11T14:30:00.029Z,3.17
2023-05-11T14:32:27.592Z,7.03
2023-05-11T14:34:56.036Z,3.00
2023-05-11T14:37:23.254Z,2.67
2023-05-11T14:39:50.864Z,4.13
2023-05-11T14:42:18.450Z,3.55
2023-05-11T14:44:46.397Z,3.47
2023-05-11T14:47:13.844Z,4.30
2023-05-11T14:49:41.183Z,4.05
2023-05-11T14:52:08.534Z,4.80
2023-05-11T14:54:36.757Z,5.57
2023-05-11T14:57:05.303Z,6.45
2023-05-11T14:59:32.699Z,6.45
2023-05-11T15:02:00.321Z,7.00
2023-05-11T15:04:27.947Z,6.80
2023-05-11T15:06:57.897Z,5.30
2023-05-11T15:09:25.400Z,3.47
2023-05-11T15:11:52.625Z,4.00
2023-05-11T15:14:20.636Z,2.55
2023-05-11T15:16:52.455Z,8.20
2023-05-11T15:19:19.876Z,2.72
2023-05-11T15:21:47.154Z,5.10
2023-05-11T15:24:14.499Z,1.83
2023-05-11T15:26:41.758Z,4.28
2023-05-11T15:29:08.970Z,4.68
2023-05-11T15:31:36.249Z,5.32
2023-05-11T15:34:03.669Z,4.68
2023-05-11T15:36:31.375Z,3.22
2023-05-11T15:38:58.601Z,2.92
2023-05-11T15:41:26.080Z,4.97
2023-05-11T15:43:53.548Z,5.35
2023-05-11T15:46:21.674Z,3.78
2023-05-11T15:48:49.193Z,4.68
2023-05-11T15:51:17.245Z,5.80
2023-05-11T15:53:44.593Z,3.63
2023-05-11T15:56:14.383Z,3.75
2023-05-11T15:58:41.608Z,8.25
2023-05-11T16:01:09.278Z,3.70
2023-05-11T16:03:37.145Z,6.72
2023-05-11T16:06:07.550Z,3.72
2023-05-11T16:08:35.180Z,2.67
2023-05-11T16:11:02.797Z,4.50
2023-05-11T16:13:30.103Z,5.13
2023-05-11T16:15:57.586Z,4.70
2023-05-11T16:18:25.236Z,3.60
2023-05-11T16:20:53.694Z,5.45
2023-05-11T16:23:21.144Z,4.50
2023-05-11T16:25:48.497Z,6.07
2023-05-11T16:28:15.756Z,6.82
2023-05-11T16:30:43.444Z,4.72
2023-05-11T16:33:10.753Z,8.02
2023-05-11T16:35:38.397Z,5.45
2023-05-11T16:38:09.692Z,4.55
2023-05-11T16:40:38.018Z,7.40
2023-05-11T16:43:06.314Z,3.42
2023-05-11T16:45:33.458Z,7.72
2023-05-11T16:48:00.763Z,3.20
2023-05-11T16:50:28.248Z,5.35
2023-05-11T16:52:56.248Z,5.95
2023-05-11T16:55:23.963Z,7.60
2023-05-11T16:57:51.764Z,12.93
2023-05-11T17:00:19.730Z,7.95
2023-05-11T17:02:48.910Z,7.47
2023-05-11T17:05:18.399Z,9.48
2023-05-11T17:07:46.905Z,6.72
2023-05-11T17:10:17.441Z,9.73
2023-05-11T17:12:44.845Z,4.55
2023-05-11T17:15:12.616Z,6.35
2023-05-11T17:17:39.828Z,4.50
2023-05-11T17:20:07.890Z,7.50
2023-05-11T17:22:35.335Z,10.10
2023-05-11T17:25:05.573Z,11.40
2023-05-11T17:27:32.901Z,9.88
2023-05-11T17:30:00.108Z,8.05
2023-05-11T17:32:27.674Z,5.70
2023-05-11T17:34:54.957Z,12.30
2023-05-11T17:37:31.068Z,4.40
2023-05-11T17:39:59.933Z,7.22
2023-05-11T17:42:28.296Z,4.28
2023-05-11T17:44:56.003Z,5.78
2023-05-11T17:47:23.217Z,3.38
2023-05-11T17:49:50.557Z,4.85
2023-05-11T17:52:18.065Z,6.10
2023-05-11T17:54:45.375Z,5.85
2023-05-11T17:57:12.548Z,5.35
2023-05-11T17:59:39.723Z,5.40
2023-05-11T18:02:07.657Z,6.40
2023-05-11T18:04:35.172Z,4.75
2023-05-11T18:07:03.788Z,10.60
2023-05-11T18:09:30.983Z,7.35
2023-05-11T18:11:58.171Z,3.17
2023-05-11T18:14:25.450Z,5.85
2023-05-11T18:16:53.017Z,5.32
2023-05-11T18:19:20.349Z,10.85
2023-05-11T18:21:48.027Z,5.57
2023-05-11T18:24:17.648Z,6.65
2023-05-11T18:26:44.974Z,5.18
2023-05-11T18:29:12.166Z,6.57
2023-05-11T18:31:39.790Z,5.60
2023-05-11T18:34:07.446Z,4.43
2023-05-11T18:36:34.909Z,4.43
2023-05-11T18:39:02.226Z,9.05
2023-05-11T18:41:29.668Z,4.80
2023-05-11T18:43:57.601Z,4.45
2023-05-11T18:46:25.526Z,4.65
2023-05-11T18:48:53.682Z,4.43
2023-05-11T18:51:22.665Z,5.18
2023-05-11T18:53:53.203Z,5.40
2023-05-11T18:56:23.501Z,4.20
2023-05-11T18:58:50.910Z,7.00
2023-05-11T19:01:19.885Z,8.35
2023-05-11T19:03:47.298Z,6.07
2023-05-11T19:06:14.858Z,6.15
2023-05-11T19:08:42.336Z,5.03
2023-05-11T19:11:10.463Z,6.55
2023-05-11T19:13:38.886Z,5.05
2023-05-11T19:16:09.801Z,5.78
2023-05-11T19:18:38.742Z,3.90
2023-05-11T19:21:06.878Z,5.60
2023-05-11T19:23:34.283Z,4.82
2023-05-11T19:26:02.092Z,11.90
2023-05-11T19:28:29.458Z,5.75
2023-05-11T19:31:03.658Z,9.60
2023-05-11T19:33:31.045Z,3.40
2023-05-11T19:35:58.394Z,12.18
2023-05-11T19:38:25.672Z,3.80
2023-05-11T19:40:53.454Z,5.20
2023-05-11T19:43:22.890Z,7.35
2023-05-11T19:45:50.098Z,9.77
2023-05-11T19:48:17.990Z,4.28
2023-05-11T19:50:45.387Z,7.72
2023-05-11T19:53:12.661Z,9.00
2023-05-11T19:55:41.216Z,9.82
2023-05-11T19:58:08.561Z,12.15
2023-05-11T20:00:36.995Z,6.22
2023-05-11T20:03:04.376Z,4.45
2023-05-11T20:05:31.838Z,5.97
2023-05-11T20:07:59.668Z,6.22
2023-05-11T20:10:26.942Z,3.38
2023-05-11T20:12:54.322Z,5.53
2023-05-11T20:15:21.991Z,6.13
2023-05-11T20:17:50.198Z,6.97
2023-05-11T20:20:18.202Z,6.35
2023-05-11T20:22:45.722Z,3.58
2023-05-11T20:25:18.345Z,8.38
2023-05-11T20:27:49.125Z,7.50
2023-05-11T20:30:16.973Z,4.50
2023-05-11T20:35:14.984Z,3.45
2023-05-11T20:37:42.460Z,5.13
2023-05-11T20:40:11.281Z,6.88
2023-05-11T20:42:38.924Z,13.48
2023-05-11T20:45:07.479Z,4.00
2023-05-11T20:47:35.041Z,8.55
2023-05-11T20:50:02.414Z,5.45
2023-05-11T20:52:30.137Z,6.50
2023-05-11T20:54:57.420Z,8.15
2023-05-11T20:57:26.059Z,7.47
2023-05-11T21:02:23.572Z,6.45
2023-05-11T21:04:51.905Z,7.55
2023-05-11T21:07:21.529Z,10.38
2023-05-11T21:09:48.905Z,8.57
2023-05-11T21:12:16.070Z,5.90
2023-05-11T21:14:43.267Z,6.00
2023-05-11T21:17:10.587Z,7.03
2023-05-11T21:19:37.832Z,3.45
2023-05-11T21:22:07.240Z,4.70
2023-05-11T21:24:37.695Z,10.25
2023-05-11T21:27:05.052Z,9.35
2023-05-11T21:29:32.392Z,7.70
2023-05-11T21:31:59.568Z,5.80
2023-05-11T21:34:26.810Z,4.15
2023-05-11T21:36:54.183Z,5.65
2023-05-11T21:39:21.476Z,4.97
2023-05-11T21:41:48.710Z,8.07
2023-05-11T21:44:16.137Z,5.57
2023-05-11T21:46:43.458Z,11.27
2023-05-11T21:49:11.974Z,7.05
2023-05-11T21:51:39.250Z,7.63
2023-05-11T21:54:06.830Z,8.10
2023-05-11T21:56:34.526Z,8.55
2023-05-11T21:59:01.759Z,7.22
2023-05-11T22:01:29.078Z,9.27
2023-05-11T22:03:56.765Z,4.90
2023-05-11T22:06:24.053Z,10.60
2023-05-11T22:08:51.261Z,4.38
2023-05-11T22:11:19.519Z,6.72
2023-05-11T22:18:43.293Z,6.00
2023-05-11T22:25:42.391Z,5.43
2023-05-11T22:28:09.527Z,7.78
2023-05-11T22:30:37.534Z,8.18
2023-05-11T22:33:04.813Z,8.18
2023-05-11T22:35:32.243Z,8.40
2023-05-11T22:38:01.669Z,5.53
2023-05-11T22:40:30.233Z,6.88
2023-05-11T22:42:58.061Z,7.65
2023-05-11T22:45:25.221Z,7.07
2023-05-11T22:47:52.465Z,7.32
2023-05-11T22:50:20.109Z,12.45
2023-05-11T22:52:47.774Z,8.60
2023-05-11T22:55:15.084Z,7.65
2023-05-11T22:57:42.260Z,4.95
2023-05-11T23:00:10.901Z,7.30
2023-05-11T23:02:38.523Z,5.57
2023-05-11T23:05:06.240Z,7.38
2023-05-11T23:07:33.525Z,10.25
2023-05-11T23:10:05.757Z,6.40
2023-05-11T23:12:34.105Z,4.55
2023-05-11T23:15:01.320Z,8.15
2023-05-11T23:17:28.630Z,9.02
2023-05-11T23:19:55.979Z,5.68
2023-05-11T23:22:23.156Z,10.45
2023-05-11T23:24:50.458Z,10.38
2023-05-11T23:27:17.685Z,3.97
2023-05-11T23:29:44.962Z,6.78
2023-05-11T23:32:12.246Z,7.95
2023-05-11T23:34:39.430Z,5.03
2023-05-11T23:37:07.328Z,8.43
2023-05-11T23:39:34.735Z,8.60
2023-05-11T23:42:01.982Z,9.52
2023-05-11T23:44:29.173Z,7.13
2023-05-11T23:46:56.623Z,9.30
2023-05-11T23:49:23.886Z,6.68
2023-05-11T23:51:51.029Z,7.30
2023-05-11T23:54:18.188Z,6.60
2023-05-11T23:56:46.728Z,8.20
2023-05-11T23:59:14.177Z,6.40
